Time;durP1;ratioP1;P1;durP2;ratioP2;P2;SDS_P1;SDS_P2;PMS_P1;PMS_P2;Temp;Humidity;BMP_temperature;BMP_pressure;BME280_temperature;BME280_humidity;BME280_pressure;Samples;Min_cycle;Max_cycle;Signal;HPM_P1;HPM_P2
2023/05/03 00:00:43;;;;;;;8.90;5.45;;;;;;;;;;4353280;28;10000678;-73
2023/05/03 00:03:09;;;;;;;9.15;5.85;;;;;;;;;;5053372;28;20082;-73
2023/05/03 00:05:36;;;;;;;11.93;5.78;;;;;;;;;;5051082;28;20075;-73
2023/05/03 00:08:02;;;;;;;10.73;5.60;;;;;;;;;;5050413;28;20029;-73
2023/05/03 00:10:28;;;;;;;10.25;5.47;;;;;;;;;;5050546;28;20401;-73
2023/05/03 00:12:55;;;;;;;6.82;4.78;;;;;;;;;;5055006;28;20040;-72
2023/05/03 00:15:21;;;;;;;9.98;4.97;;;;;;;;;;5061593;28;20477;-73
2023/05/03 00:17:47;;;;;;;8.65;5.00;;;;;;;;;;5066390;28;20131;-71
2023/05/03 00:20:14;;;;;;;8.68;5.05;;;;;;;;;;5056959;28;20463;-73
2023/05/03 00:22:40;;;;;;;7.22;4.22;;;;;;;;;;5050321;28;20120;-73
2023/05/03 00:25:07;;;;;;;7.85;4.68;;;;;;;;;;5050217;28;20080;-73
2023/05/03 00:27:33;;;;;;;8.20;4.90;;;;;;;;;;5054718;28;20029;-73
2023/05/03 00:29:59;;;;;;;10.75;5.03;;;;;;;;;;5069410;28;20016;-73
2023/05/03 00:32:25;;;;;;;6.53;4.50;;;;;;;;;;5069099;28;20046;-73
2023/05/03 00:34:52;;;;;;;7.15;4.65;;;;;;;;;;5064883;28;20029;-73
2023/05/03 00:37:18;;;;;;;6.75;4.60;;;;;;;;;;5053531;28;20116;-73
2023/05/03 00:39:44;;;;;;;8.35;4.40;;;;;;;;;;5050367;28;20128;-73
2023/05/03 00:42:10;;;;;;;9.75;4.53;;;;;;;;;;5050221;28;20620;-74
2023/05/03 00:44:36;;;;;;;7.00;4.43;;;;;;;;;;5056061;28;20036;-74
2023/05/03 00:47:03;;;;;;;7.38;4.72;;;;;;;;;;5067733;28;20040;-73
2023/05/03 00:49:29;;;;;;;8.18;5.30;;;;;;;;;;5067143;28;20430;-72
2023/05/03 00:51:58;;;;;;;9.98;5.80;;;;;;;;;;5049871;28;20032;-73
2023/05/03 00:54:27;;;;;;;8.38;5.85;;;5.30;99.90;;;;;;5050987;28;20025;-73
2023/05/03 00:56:54;;;;;;;8.55;5.65;;;5.30;99.90;;;;;;5049730;28;20025;-73
2023/05/03 00:59:20;;;;;;;8.00;4.93;;;5.20;99.90;;;;;;5049682;28;20424;-73
2023/05/03 01:01:50;;;;;;;8.27;4.75;;;5.20;99.90;;;;;;5049427;28;20021;-72
2023/05/03 01:04:17;;;;;;;6.47;4.47;;;5.10;99.90;;;;;;5061505;28;20028;-73
2023/05/03 01:06:52;;;;;;;7.38;4.45;;;5.10;99.90;;;;;;5066922;28;20025;-74
2023/05/03 01:09:31;;;;;;;5.25;4.47;;;5.00;99.90;;;;;;5049701;28;20040;-73
2023/05/03 01:12:11;;;;;;;8.32;4.70;;;5.00;99.90;;;;;;5056358;28;20568;-73
2023/05/03 01:15:07;;;;;;;8.68;6.20;;;5.00;99.90;;;;;;5050722;28;20025;-73
2023/05/03 01:17:38;;;;;;;9.43;6.82;;;4.90;99.90;;;;;;5049833;28;20116;-73
2023/05/03 01:20:10;;;;;;;9.25;6.60;;;4.80;99.90;;;;;;5065381;28;20098;-73
2023/05/03 01:22:42;;;;;;;9.82;6.30;;;4.80;99.90;;;;;;5069426;28;20036;-73
2023/05/03 01:25:10;;;;;;;9.35;6.65;;;4.70;99.90;;;;;;5067615;28;20071;-73
2023/05/03 01:27:37;;;;;;;11.93;6.90;;;4.70;99.90;;;;;;5067850;28;20869;-73
2023/05/03 01:30:04;;;;;;;14.02;7.30;;;4.60;99.90;;;;;;5059478;28;20028;-73
2023/05/03 01:32:54;;;;;;;9.77;6.20;;;4.60;99.90;;;;;;5051911;28;20055;-73
2023/05/03 01:35:32;;;;;;;11.88;7.20;;;4.50;99.90;;;;;;5048942;28;20031;-74
2023/05/03 01:37:59;;;;;;;10.25;6.78;;;4.50;99.90;;;;;;5048871;28;20447;-73
2023/05/03 01:40:26;;;;;;;8.77;6.63;;;4.40;99.90;;;;;;5048992;28;20735;-73
2023/05/03 01:42:54;;;;;;;12.43;7.88;;;4.40;99.90;;;;;;5049945;28;20108;-73
2023/05/03 01:45:21;;;;;;;11.75;7.28;;;4.40;99.90;;;;;;5049751;28;20401;-73
2023/05/03 01:47:47;;;;;;;11.32;7.28;;;4.30;99.90;;;;;;5066637;28;20032;-73
2023/05/03 01:50:12;;;;;;;9.77;6.68;;;4.30;99.90;;;;;;5052283;28;20104;-73
2023/05/03 01:52:38;;;;;;;14.38;6.93;;;4.20;99.90;;;;;;5049348;28;20484;-74
2023/05/03 01:55:04;;;;;;;13.25;6.82;;;4.20;99.90;;;;;;5048130;28;20036;-73
2023/05/03 01:57:30;;;;;;;10.13;6.82;;;4.20;99.90;;;;;;5067925;28;20033;-74
2023/05/03 01:59:55;;;;;;;10.07;6.40;;;4.20;99.90;;;;;;5059290;28;20097;-73
2023/05/03 02:02:21;;;;;;;11.20;6.82;;;4.20;99.90;;;;;;5051541;28;20040;-73
2023/05/03 02:04:47;;;;;;;13.85;6.47;;;4.30;99.90;;;;;;5048645;28;20033;-73
2023/05/03 02:07:12;;;;;;;14.60;7.45;;;4.40;99.90;;;;;;5051694;28;20536;-73
2023/05/03 02:09:38;;;;;;;16.08;7.90;;;4.50;99.90;;;;;;5055149;28;20233;-73
2023/05/03 02:12:04;;;;;;;14.10;7.75;;;4.60;99.90;;;;;;5048584;28;20053;-73
2023/05/03 02:14:31;;;;;;;13.63;8.05;;;4.80;99.90;;;;;;5047393;28;20036;-73
2023/05/03 02:16:57;;;;;;;11.45;7.68;;;5.00;99.90;;;;;;5057935;28;20103;-74
2023/05/03 02:19:23;;;;;;;17.23;8.98;;;5.10;99.90;;;;;;5052241;28;20428;-73
2023/05/03 02:21:49;;;;;;;16.50;9.32;;;5.00;99.90;;;;;;5047944;28;20036;-74
2023/05/03 02:24:15;;;;;;;18.70;9.27;;;5.00;99.90;;;;;;5061339;28;20598;-73
2023/05/03 02:26:41;;;;;;;14.98;8.73;;;5.00;99.90;;;;;;5054145;28;20697;-73
2023/05/03 02:29:07;;;;;;;16.60;9.02;;;5.10;99.90;;;;;;5056071;28;20033;-73
2023/05/03 02:31:32;;;;;;;15.52;8.43;;;5.10;99.90;;;;;;5065809;28;20021;-73
2023/05/03 02:33:58;;;;;;;19.15;9.10;;;5.10;99.90;;;;;;5067055;28;20060;-73
2023/05/03 02:36:24;;;;;;;14.18;8.32;;;5.10;99.90;;;;;;5058910;28;20029;-73
2023/05/03 02:38:49;;;;;;;15.43;8.40;;;5.10;99.90;;;;;;5047427;28;20566;-73
2023/05/03 02:41:15;;;;;;;14.23;8.40;;;5.20;99.90;;;;;;5059420;28;20024;-73
2023/05/03 02:43:41;;;;;;;17.17;9.27;;;5.20;99.90;;;;;;5068352;28;20036;-73
2023/05/03 02:46:06;;;;;;;15.90;8.45;;;5.20;99.90;;;;;;5049054;28;20106;-73
2023/05/03 02:48:32;;;;;;;16.65;8.70;;;5.20;99.90;;;;;;5066688;28;20029;-74
2023/05/03 02:50:57;;;;;;;17.50;8.82;;;5.30;99.90;;;;;;5048468;28;20477;-74
2023/05/03 02:53:23;;;;;;;13.27;8.93;;;5.20;99.90;;;;;;5050164;28;20056;-74
2023/05/03 02:55:49;;;;;;;18.08;9.90;;;5.20;99.90;;;;;;5054677;28;20031;-73
2023/05/03 02:58:15;;;;;;;17.63;10.10;;;5.20;99.90;;;;;;5055013;28;20084;-73
2023/05/03 03:00:40;;;;;;;21.48;10.95;;;5.20;99.90;;;;;;5060979;28;20033;-73
2023/05/03 03:03:06;;;;;;;18.75;9.43;;;5.20;99.90;;;;;;5050935;28;20037;-73
2023/05/03 03:05:32;;;;;;;19.50;9.75;;;5.30;99.90;;;;;;5052710;28;20025;-74
2023/05/03 03:07:57;;;;;;;20.55;10.02;;;5.30;99.90;;;;;;5064021;28;20032;-74
2023/05/03 03:10:23;;;;;;;20.52;10.13;;;5.30;99.90;;;;;;5055154;28;20035;-73
2023/05/03 03:12:49;;;;;;;18.77;10.13;;;5.20;99.90;;;;;;5063811;28;20032;-74
2023/05/03 03:15:14;;;;;;;20.60;10.30;;;5.20;99.90;;;;;;5061429;28;20099;-73
2023/05/03 03:17:40;;;;;;;16.35;9.40;;;5.20;99.90;;;;;;5068277;28;20039;-73
2023/05/03 03:20:10;;;;;;;16.02;9.32;;;5.20;99.90;;;;;;5051647;28;20017;-73
2023/05/03 03:22:36;;;;;;;15.68;9.43;;;5.10;99.90;;;;;;5059398;28;20481;-73
2023/05/03 03:25:03;;;;;;;17.05;9.43;;;5.10;99.90;;;;;;5051289;28;20064;-73
2023/05/03 03:27:29;;;;;;;14.38;9.10;;;5.10;99.90;;;;;;5066812;28;20040;-73
2023/05/03 03:29:55;;;;;;;17.15;9.45;;;5.10;99.90;;;;;;5069105;28;20028;-73
2023/05/03 03:32:20;;;;;;;18.35;9.10;;;5.00;99.90;;;;;;5058708;28;20115;-73
2023/05/03 03:34:46;;;;;;;13.15;8.00;;;5.00;99.90;;;;;;5063284;28;20020;-73
2023/05/03 03:37:12;;;;;;;15.95;8.45;;;5.00;99.90;;;;;;5070158;28;20028;-74
2023/05/03 03:39:38;;;;;;;16.05;9.10;;;5.00;99.90;;;;;;5066951;28;20557;-73
2023/05/03 03:42:05;;;;;;;17.05;7.97;;;5.00;99.90;;;;;;5065950;28;20033;-74
2023/05/03 03:44:30;;;;;;;13.73;8.23;;;5.00;99.90;;;;;;5051247;28;20503;-73
2023/05/03 03:46:56;;;;;;;17.17;8.25;;;5.00;99.90;;;;;;5050160;28;20037;-73
2023/05/03 03:49:22;;;;;;;14.63;8.20;;;5.00;99.90;;;;;;5062172;28;20079;-73
2023/05/03 03:51:47;;;;;;;14.10;7.85;;;5.00;99.90;;;;;;5069506;28;20028;-73
2023/05/03 03:54:13;;;;;;;9.55;6.85;;;5.00;99.90;;;;;;5065644;28;20028;-73
2023/05/03 03:56:38;;;;;;;15.20;8.20;;;5.00;99.90;;;;;;5067425;28;20037;-73
2023/05/03 03:59:05;;;;;;;12.93;7.80;;;4.90;99.90;;;;;;5068229;28;20071;-74
2023/05/03 04:01:30;;;;;;;16.75;8.70;;;5.00;99.90;;;;;;5051263;28;20152;-73
2023/05/03 04:03:56;;;;;;;18.25;9.05;;;4.90;99.90;;;;;;5063511;28;20445;-73
2023/05/03 04:06:22;;;;;;;16.27;9.20;;;4.90;99.90;;;;;;5071108;28;20035;-73
2023/05/03 04:08:47;;;;;;;17.25;9.00;;;4.90;99.90;;;;;;5069270;28;20035;-74
2023/05/03 04:11:13;;;;;;;15.85;9.48;;;4.90;99.90;;;;;;5067761;28;20028;-74
2023/05/03 04:13:38;;;;;;;16.52;9.10;;;4.90;99.90;;;;;;5056886;28;20182;-73
2023/05/03 04:16:06;;;;;;;16.38;9.05;;;4.90;99.90;;;;;;5055741;28;20675;-73
2023/05/03 04:18:31;;;;;;;16.75;10.10;;;4.90;99.90;;;;;;5058384;28;20039;-74
2023/05/03 04:20:57;;;;;;;19.05;10.18;;;4.90;99.90;;;;;;5069495;28;20029;-74
2023/05/03 04:23:22;;;;;;;15.20;9.60;;;4.90;99.90;;;;;;5062397;28;20028;-73
2023/05/03 04:25:48;;;;;;;16.88;9.02;;;4.90;99.90;;;;;;5068242;28;20119;-73
2023/05/03 04:28:14;;;;;;;16.00;9.50;;;4.80;99.90;;;;;;5065579;28;20059;-73
2023/05/03 04:30:42;;;;;;;18.05;9.30;;;4.90;99.90;;;;;;5066178;28;20078;-73
2023/05/03 04:33:08;;;;;;;20.58;8.68;;;4.90;99.90;;;;;;5051000;28;22048;-72
2023/05/03 04:35:34;;;;;;;17.13;9.13;;;4.90;99.90;;;;;;5057363;28;20666;-74
2023/05/03 04:38:00;;;;;;;16.02;9.02;;;4.90;99.90;;;;;;5061853;28;20085;-73
2023/05/03 04:40:26;;;;;;;18.02;9.30;;;4.90;99.90;;;;;;5051123;28;20120;-73
2023/05/03 04:42:51;;;;;;;25.88;9.45;;;5.00;99.90;;;;;;5053001;28;20120;-73
2023/05/03 04:45:17;;;;;;;15.05;9.38;;;5.00;99.90;;;;;;5057307;28;20025;-74
2023/05/03 04:47:43;;;;;;;16.20;9.60;;;5.00;99.90;;;;;;5047586;28;20488;-72
2023/05/03 04:50:09;;;;;;;18.35;9.45;;;5.00;99.90;;;;;;5055773;28;20017;-73
2023/05/03 04:52:35;;;;;;;15.80;8.95;;;5.10;99.90;;;;;;5052194;28;20044;-73
2023/05/03 04:55:02;;;;;;;18.67;9.13;;;5.10;99.90;;;;;;5050198;28;20480;-73
2023/05/03 04:57:28;;;;;;;19.27;9.52;;;5.10;99.90;;;;;;5052589;28;20029;-73
2023/05/03 04:59:54;;;;;;;14.38;9.18;;;5.10;99.90;;;;;;5062781;28;20123;-73
2023/05/03 05:02:20;;;;;;;15.90;9.25;;;5.10;99.90;;;;;;5058636;28;20025;-73
2023/05/03 05:04:45;;;;;;;14.93;10.18;;;5.10;99.90;;;;;;5055961;28;20396;-73
2023/05/03 05:07:12;;;;;;;16.13;9.32;;;5.20;99.90;;;;;;5065316;28;20024;-73
2023/05/03 05:09:39;;;;;;;16.48;8.95;;;5.10;99.90;;;;;;5064030;28;20090;-73
2023/05/03 05:12:05;;;;;;;16.30;9.13;;;5.20;99.90;;;;;;5055847;28;20020;-73
2023/05/03 05:14:31;;;;;;;13.45;9.07;;;5.10;99.90;;;;;;5059385;28;20115;-73
2023/05/03 05:16:57;;;;;;;12.13;8.68;;;5.20;99.90;;;;;;5053553;28;20450;-72
2023/05/03 05:19:23;;;;;;;14.48;9.13;;;5.20;99.90;;;;;;5053500;28;20032;-73
2023/05/03 05:21:50;;;;;;;13.20;8.80;;;5.30;99.90;;;;;;5048586;28;20043;-72
2023/05/03 05:24:15;;;;;;;16.27;9.02;;;5.30;99.90;;;;;;5064871;28;20020;-72
2023/05/03 05:26:42;;;;;;;13.98;9.07;;;5.30;99.90;;;;;;5048956;28;20099;-72
2023/05/03 05:29:07;;;;;;;15.60;9.27;;;5.30;99.90;;;;;;5059075;28;20021;-73
2023/05/03 05:31:34;;;;;;;12.77;8.77;;;5.40;99.90;;;;;;5055640;28;20385;-73
2023/05/03 05:33:59;;;;;;;16.55;9.07;;;5.40;99.90;;;;;;5065093;28;20094;-73
2023/05/03 05:36:26;;;;;;;13.23;8.48;;;5.40;99.90;;;;;;5057153;28;20033;-73
2023/05/03 05:38:51;;;;;;;17.02;8.57;;;5.40;99.90;;;;;;5054972;28;20049;-73
2023/05/03 05:41:17;;;;;;;15.98;9.07;;;5.40;99.90;;;;;;5057536;28;20063;-72
2023/05/03 05:43:43;;;;;;;16.08;8.88;;;5.50;99.90;;;;;;5058906;28;20024;-72
2023/05/03 05:46:09;;;;;;;16.17;9.18;;;5.50;99.90;;;;;;5065132;28;20059;-73
2023/05/03 05:48:35;;;;;;;16.60;9.40;;;5.60;99.90;;;;;;5055824;28;20028;-73
2023/05/03 05:51:00;;;;;;;17.42;9.50;;;5.60;99.90;;;;;;5051854;28;20680;-73
2023/05/03 05:53:27;;;;;;;17.70;9.20;;;5.70;99.90;;;;;;5054812;28;20374;-72
2023/05/03 05:55:53;;;;;;;13.70;9.80;;;5.70;99.90;;;;;;5057760;28;20047;-71
2023/05/03 05:58:18;;;;;;;19.38;10.00;;;5.90;99.90;;;;;;5046921;28;20504;-72
2023/05/03 06:00:44;;;;;;;14.02;8.93;;;5.90;99.90;;;;;;5050597;28;20094;-72
2023/05/03 06:03:10;;;;;;;16.63;9.57;;;6.10;99.90;;;;;;5046737;28;20032;-71
2023/05/03 06:05:35;;;;;;;17.42;9.15;;;6.20;99.90;;;;;;5065176;28;20060;-72
2023/05/03 06:08:01;;;;;;;15.93;9.25;;;6.30;99.90;;;;;;5057746;28;20365;-72
2023/05/03 06:10:27;;;;;;;17.38;9.25;;;6.50;99.90;;;;;;5053871;28;20393;-72
2023/05/03 06:12:52;;;;;;;17.27;9.70;;;6.60;99.90;;;;;;5049450;28;20451;-71
2023/05/03 06:15:18;;;;;;;18.40;9.32;;;6.70;99.90;;;;;;5050727;28;20029;-72
2023/05/03 06:17:44;;;;;;;16.30;9.13;;;6.80;99.90;;;;;;5053061;28;20025;-72
2023/05/03 06:20:10;;;;;;;14.90;8.48;;;6.90;99.90;;;;;;5046546;28;20094;-72
2023/05/03 06:22:36;;;;;;;16.15;8.07;;;7.00;99.90;;;;;;5052535;28;20439;-72
2023/05/03 06:25:02;;;;;;;13.75;8.82;;;7.10;99.90;;;;;;5050280;28;20036;-72
2023/05/03 06:27:28;;;;;;;13.18;8.15;;;7.10;99.90;;;;;;5054215;28;20025;-72
2023/05/03 06:29:53;;;;;;;15.70;7.70;;;7.20;99.90;;;;;;5055316;28;20943;-72
2023/05/03 06:32:20;;;;;;;14.98;7.38;;;7.20;99.90;;;;;;5050554;28;20095;-72
2023/05/03 06:34:47;;;;;;;15.95;7.35;;;7.30;99.90;;;;;;5064043;28;20024;-72
2023/05/03 06:37:14;;;;;;;13.05;7.15;;;7.40;99.90;;;;;;5058001;28;20036;-73
2023/05/03 06:39:39;;;;;;;16.20;7.45;;;7.50;99.90;;;;;;5056126;28;20035;-73
2023/05/03 06:42:06;;;;;;;14.45;7.18;;;7.60;99.90;;;;;;5062588;28;20183;-72
2023/05/03 06:44:32;;;;;;;15.40;7.47;;;7.80;99.90;;;;;;5048487;28;20111;-72
2023/05/03 06:46:58;;;;;;;15.07;6.72;;;8.00;99.90;;;;;;5045757;28;20115;-72
2023/05/03 06:49:23;;;;;;;11.68;7.03;;;8.20;99.90;;;;;;5054290;28;20512;-72
2023/05/03 06:51:49;;;;;;;10.82;7.35;;;8.40;99.90;;;;;;5046864;28;20037;-73
2023/05/03 06:54:15;;;;;;;11.25;6.50;;;8.70;99.90;;;;;;5049923;28;20033;-72
2023/05/03 06:56:40;;;;;;;13.20;7.00;;;8.90;99.90;;;;;;5057102;28;20577;-72
2023/05/03 06:59:07;;;;;;;13.48;7.25;;;9.10;99.90;;;;;;5049363;28;20029;-73
2023/05/03 07:01:33;;;;;;;11.30;6.57;;;9.30;99.90;;;;;;5049703;28;20040;-73
2023/05/03 07:03:59;;;;;;;11.82;6.28;;;9.60;99.90;;;;;;5049011;28;20037;-72
2023/05/03 07:06:24;;;;;;;12.55;6.75;;;9.80;99.90;;;;;;5064995;28;20028;-72
2023/05/03 07:08:51;;;;;;;9.93;6.63;;;9.90;99.90;;;;;;5061198;28;20024;-72
2023/05/03 07:11:17;;;;;;;9.55;5.80;;;10.10;99.90;;;;;;5057613;28;20044;-73
2023/05/03 07:13:43;;;;;;;11.00;5.65;;;10.40;99.90;;;;;;5056688;28;20376;-72
2023/05/03 07:16:08;;;;;;;9.80;5.57;;;10.60;99.90;;;;;;5062625;28;20033;-72
2023/05/03 07:18:34;;;;;;;11.75;5.95;;;10.70;99.90;;;;;;5058291;28;20439;-72
2023/05/03 07:21:04;;;;;;;10.38;5.45;;;10.80;99.90;;;;;;5060561;28;20025;-72
2023/05/03 07:23:30;;;;;;;8.20;4.63;;;10.90;99.90;;;;;;5047697;28;20059;-73
2023/05/03 07:25:56;;;;;;;9.10;4.82;;;11.00;99.90;;;;;;5061740;28;20118;-73
2023/05/03 07:28:22;;;;;;;10.90;4.75;;;11.10;99.90;;;;;;5066660;28;20035;-73
2023/05/03 07:30:47;;;;;;;7.72;4.63;;;11.30;99.90;;;;;;5058835;28;20216;-72
2023/05/03 07:33:13;;;;;;;7.20;4.28;;;11.40;99.90;;;;;;5052532;28;20121;-73
2023/05/03 07:35:38;;;;;;;11.13;4.95;;;11.40;99.90;;;;;;5044156;28;20085;-73
2023/05/03 07:38:04;;;;;;;9.23;3.97;;;11.40;99.90;;;;;;5049509;28;20496;-72
2023/05/03 07:40:32;;;;;;;8.05;4.30;;;11.60;99.90;;;;;;5051978;28;20025;-73
2023/05/03 07:42:58;;;;;;;10.50;4.18;;;11.50;99.90;;;;;;5054330;28;20033;-72
2023/05/03 07:45:24;;;;;;;11.27;3.88;;;11.40;99.90;;;;;;5047458;28;20099;-72
2023/05/03 07:47:50;;;;;;;8.00;3.88;;;11.30;99.90;;;;;;5058392;28;20171;-72
2023/05/03 07:50:16;;;;;;;7.53;4.18;;;11.30;99.90;;;;;;5064020;28;20173;-73
2023/05/03 07:52:42;;;;;;;7.28;4.32;;;11.50;99.90;;;;;;5065443;28;20028;-72
2023/05/03 07:55:08;;;;;;;5.95;3.90;;;11.30;99.90;;;;;;5064339;28;20013;-73
2023/05/03 07:57:33;;;;;;;7.97;3.85;;;11.30;99.90;;;;;;5060146;28;20036;-73
2023/05/03 07:59:59;;;;;;;8.57;3.38;;;11.30;99.90;;;;;;5060931;28;20036;-73
2023/05/03 08:02:25;;;;;;;7.88;3.17;;;11.30;99.90;;;;;;5058811;28;20495;-73
2023/05/03 08:04:50;;;;;;;9.05;3.83;;;11.20;99.90;;;;;;5069575;28;20058;-73
2023/05/03 08:07:16;;;;;;;9.70;3.95;;;11.20;99.90;;;;;;5053764;28;20029;-73
2023/05/03 08:09:42;;;;;;;6.70;3.63;;;11.30;99.90;;;;;;5047275;28;20021;-73
2023/05/03 08:12:08;;;;;;;7.28;3.72;;;11.50;99.90;;;;;;5065595;28;20496;-72
2023/05/03 08:14:33;;;;;;;10.40;3.40;;;11.60;99.90;;;;;;5053142;28;20032;-73
2023/05/03 08:16:59;;;;;;;7.25;3.30;;;11.50;99.90;;;;;;5055681;28;20125;-73
2023/05/03 08:19:25;;;;;;;6.85;3.28;;;11.50;99.90;;;;;;5062452;28;20049;-73
2023/05/03 08:21:53;;;;;;;5.78;3.10;;;11.60;99.90;;;;;;5048952;28;20107;-73
2023/05/03 08:24:19;;;;;;;8.10;3.33;;;11.70;99.90;;;;;;5069494;28;20037;-73
2023/05/03 08:26:47;;;;;;;8.65;3.10;;;11.90;99.90;;;;;;5068202;28;20483;-73
2023/05/03 08:29:15;;;;;;;6.63;3.20;;;12.00;99.90;;;;;;5063317;28;20032;-73
2023/05/03 08:31:41;;;;;;;8.05;3.33;;;12.00;99.90;;;;;;5057906;28;20384;-73
2023/05/03 08:34:09;;;;;;;8.10;3.30;;;12.20;99.90;;;;;;5062903;28;20111;-73
2023/05/03 08:36:37;;;;;;;6.88;3.28;;;12.20;99.90;;;;;;5063976;28;20396;-73
2023/05/03 08:39:06;;;;;;;8.32;3.20;;;12.30;99.90;;;;;;5068776;28;20052;-72
2023/05/03 08:41:32;;;;;;;10.73;3.20;;;12.40;99.90;;;;;;5069001;28;20143;-72
2023/05/03 08:43:59;;;;;;;6.72;3.15;;;12.50;99.90;;;;;;5064440;28;20032;-73
2023/05/03 08:46:26;;;;;;;6.72;2.83;;;12.40;99.90;;;;;;5048649;28;20388;-72
2023/05/03 08:48:52;;;;;;;7.00;3.15;;;12.50;99.90;;;;;;5060743;28;20033;-72
2023/05/03 08:51:19;;;;;;;9.60;3.45;;;;;;;;;;5061033;28;20024;-72
2023/05/03 08:53:45;;;;;;;6.20;2.85;;;12.80;99.90;;;;;;5067400;28;20024;-72
2023/05/03 08:56:15;;;;;;;7.07;3.28;;;12.70;99.90;;;;;;5063337;28;20425;-72
2023/05/03 08:58:41;;;;;;;4.35;2.40;;;12.50;99.90;;;;;;5058772;28;20473;-72
2023/05/03 09:01:08;;;;;;;8.98;3.38;;;12.50;99.90;;;;;;5052112;28;20032;-72
2023/05/03 09:03:35;;;;;;;5.57;2.80;;;12.40;99.90;;;;;;5059235;28;20029;-72
2023/05/03 09:06:01;;;;;;;5.85;2.83;;;12.10;99.90;;;;;;5058795;28;20103;-73
2023/05/03 09:08:31;;;;;;;7.53;2.97;;;12.00;99.90;;;;;;5048125;28;20043;-73
2023/05/03 09:10:57;;;;;;;8.05;3.10;;;11.90;99.90;;;;;;5048817;28;20436;-73
2023/05/03 09:13:31;;;;;;;5.15;2.80;;;11.90;99.90;;;;;;5051592;28;20028;-73
2023/05/03 09:15:57;;;;;;;6.28;2.80;;;11.90;99.90;;;;;;5054802;28;20029;-73
2023/05/03 09:18:23;;;;;;;5.70;2.63;;;11.90;99.90;;;;;;5047854;28;20035;-73
2023/05/03 09:20:50;;;;;;;7.60;2.90;;;12.00;99.90;;;;;;5060055;28;20036;-73
2023/05/03 09:23:30;;;;;;;6.03;2.83;;;12.20;99.90;;;;;;5062748;28;20096;-72
2023/05/03 09:25:58;;;;;;;9.98;2.65;;;12.40;99.90;;;;;;5065627;28;20056;-73
2023/05/03 09:28:24;;;;;;;9.90;3.63;;;12.70;99.90;;;;;;5064144;28;20175;-73
2023/05/03 09:31:03;;;;;;;4.85;2.67;;;12.70;99.90;;;;;;5057657;28;20024;-73
2023/05/03 09:33:29;;;;;;;8.75;2.75;;;12.80;99.90;;;;;;5053144;28;20033;-73
2023/05/03 09:35:57;;;;;;;4.90;2.50;;;12.90;99.90;;;;;;5052863;28;20028;-73
2023/05/03 09:38:28;;;;;;;5.32;2.30;;;12.90;99.90;;;;;;5058140;28;20033;-72
2023/05/03 09:40:53;;;;;;;10.00;2.90;;;12.80;99.90;;;;;;5053187;28;20032;-73
2023/05/03 09:43:19;;;;;;;7.45;2.33;;;12.80;99.90;;;;;;5059016;28;20028;-72
2023/05/03 09:45:45;;;;;;;6.22;2.38;;;12.90;99.90;;;;;;5055636;28;20033;-72
2023/05/03 09:48:12;;;;;;;8.07;3.10;;;12.80;99.90;;;;;;5051440;28;20036;-72
2023/05/03 09:50:37;;;;;;;6.57;2.67;;;12.70;99.90;;;;;;5058638;28;20025;-72
2023/05/03 09:53:05;;;;;;;6.60;2.22;;;12.70;99.90;;;;;;5059912;28;20484;-72
2023/05/03 09:55:34;;;;;;;5.32;2.22;;;12.90;99.90;;;;;;5053166;28;20035;-73
2023/05/03 09:58:05;;;;;;;7.28;2.67;;;13.00;99.90;;;;;;5049647;28;20496;-73
2023/05/03 10:00:41;;;;;;;6.30;2.50;;;13.10;99.90;;;;;;5047176;28;20039;-72
2023/05/03 10:03:10;;;;;;;7.90;2.30;;;13.10;99.90;;;;;;5052741;28;20033;-73
2023/05/03 10:05:45;;;;;;;6.28;2.47;;;13.30;99.90;;;;;;5059787;28;20044;-73
2023/05/03 10:08:23;;;;;;;5.18;2.22;;;13.40;99.80;;;;;;5046808;28;20075;-73
2023/05/03 10:10:53;;;;;;;7.65;2.67;;;13.20;99.80;;;;;;5049422;28;20025;-72
2023/05/03 10:13:20;;;;;;;5.10;2.40;;;13.20;98.80;;;;;;5056587;28;20024;-73
2023/05/03 10:15:52;;;;;;;7.25;2.40;;;13.40;99.60;;;;;;5059678;28;20032;-73
2023/05/03 10:18:20;;;;;;;5.43;2.33;;;13.40;99.20;;;;;;5067566;28;20392;-73
2023/05/03 10:21:03;;;;;;;5.38;2.20;;;13.30;99.50;;;;;;5059131;28;20071;-73
2023/05/03 10:23:28;;;;;;;4.35;2.30;;;13.40;99.80;;;;;;5042013;28;20033;-71
2023/05/03 10:26:06;;;;;;;4.78;2.35;;;13.60;99.20;;;;;;5049539;28;20060;-72
2023/05/03 10:28:33;;;;;;;5.05;2.42;;;13.80;98.70;;;;;;5054529;28;20072;-72
2023/05/03 10:30:58;;;;;;;4.13;2.40;;;13.90;98.60;;;;;;5049235;28;20100;-72
2023/05/03 10:33:27;;;;;;;5.32;2.70;;;13.90;97.90;;;;;;5057964;28;20021;-72
2023/05/03 10:35:53;;;;;;;4.43;2.30;;;13.80;98.40;;;;;;5054533;28;20043;-71
2023/05/03 10:38:27;;;;;;;5.43;2.55;;;13.90;97.20;;;;;;5050792;28;20060;-70
2023/05/03 10:40:54;;;;;;;5.88;2.85;;;14.00;98.20;;;;;;5052890;28;20044;-71
2023/05/03 10:43:32;;;;;;;5.22;2.47;;;13.90;97.30;;;;;;5057662;28;20025;-71
2023/05/03 10:46:05;;;;;;;5.28;2.50;;;13.90;97.10;;;;;;5059633;28;20028;-71
2023/05/03 10:48:31;;;;;;;;;;;13.90;97.80;;;;;;5056325;28;20366;-71
2023/05/03 10:51:17;;;;;;;6.32;2.35;;;13.90;97.20;;;;;;5047056;28;19916;-71
2023/05/03 10:53:43;;;;;;;4.35;2.30;;;13.90;96.80;;;;;;5054045;28;20033;-71
2023/05/03 10:56:14;;;;;;;7.10;2.65;;;13.90;97.60;;;;;;5056921;28;20021;-71
2023/05/03 10:58:49;;;;;;;6.63;2.60;;;13.80;96.50;;;;;;5049482;28;20029;-70
2023/05/03 11:01:16;;;;;;;8.77;2.60;;;13.90;96.80;;;;;;5054457;28;20078;-71
2023/05/03 11:04:02;;;;;;;11.25;2.95;;;14.00;96.20;;;;;;5055213;28;20377;-71
2023/05/03 11:06:28;;;;;;;7.00;2.20;;;14.20;96.60;;;;;;5050501;28;20033;-71
2023/05/03 11:08:53;;;;;;;3.40;2.40;;;14.30;95.30;;;;;;5054613;28;20108;-71
2023/05/03 11:11:20;;;;;;;3.90;2.20;;;14.40;95.50;;;;;;5062242;28;20059;-71
2023/05/03 11:13:46;;;;;;;5.92;2.62;;;14.50;93.70;;;;;;4701148;28;10001175;-71
2023/05/03 11:16:12;;;;;;;4.93;2.53;;;14.60;94.80;;;;;;5045021;28;20045;-70
2023/05/03 11:18:38;;;;;;;5.47;2.28;;;14.40;94.80;;;;;;5047227;28;20035;-70
2023/05/03 11:21:03;;;;;;;5.00;2.45;;;14.40;94.50;;;;;;5060209;28;20131;-70
2023/05/03 11:23:29;;;;;;;5.55;2.30;;;14.40;94.30;;;;;;5056628;28;20036;-70
2023/05/03 11:25:58;;;;;;;6.32;2.35;;;14.50;94.70;;;;;;5055283;28;20576;-71
2023/05/03 11:28:25;;;;;;;5.75;2.80;;;;;;;;;;5052344;28;20056;-70
2023/05/03 11:30:51;;;;;;;6.10;2.80;;;14.90;92.70;;;;;;5054970;28;20085;-70
2023/05/03 11:33:16;;;;;;;7.50;2.88;;;15.00;92.40;;;;;;5060148;28;20329;-70
2023/05/03 11:35:42;;;;;;;7.13;2.50;;;15.00;93.00;;;;;;5054432;28;20111;-70
2023/05/03 11:38:09;;;;;;;6.88;2.50;;;;;;;;;;5048569;28;20029;-71
2023/05/03 11:40:35;;;;;;;5.88;2.20;;;15.00;93.10;;;;;;5061918;28;20291;-71
2023/05/03 11:43:01;;;;;;;6.45;2.38;;;14.90;93.20;;;;;;5056998;28;20035;-71
2023/05/03 11:45:46;;;;;;;6.22;2.28;;;15.00;92.80;;;;;;5050674;28;20032;-71
2023/05/03 11:48:12;;;;;;;5.53;2.17;;;15.20;93.20;;;;;;5048681;28;20508;-72
2023/05/03 11:50:54;;;;;;;4.35;2.42;;;15.40;92.90;;;;;;5057703;28;20032;-71
2023/05/03 11:53:24;;;;;;;3.45;2.30;;;15.10;91.90;;;;;;5054450;28;20037;-71
2023/05/03 11:55:53;;;;;;;5.47;2.55;;;14.90;92.80;;;;;;5054752;28;20040;-70
2023/05/03 11:58:26;;;;;;;3.63;2.38;;;14.90;91.80;;;;;;5056788;28;20040;-70
2023/05/03 12:00:56;;;;;;;5.78;2.50;;;15.20;92.40;;;;;;5060612;28;20097;-70
2023/05/03 12:03:25;;;;;;;4.95;2.80;;;15.30;92.30;;;;;;5053108;28;20037;-71
2023/05/03 12:05:54;;;;;;;5.60;2.75;;;15.40;91.90;;;;;;5056341;28;20091;-70
2023/05/03 12:08:20;;;;;;;4.32;2.60;;;15.70;91.50;;;;;;5054214;28;20400;-71
2023/05/03 12:10:49;;;;;;;9.65;2.53;;;16.00;90.60;;;;;;5046234;28;20638;-71
2023/05/03 12:13:34;;;;;;;4.30;2.53;;;15.90;90.60;;;;;;5049023;28;20040;-71
2023/05/03 12:16:01;;;;;;;8.23;2.38;;;15.90;89.30;;;;;;5060061;28;20107;-71
2023/05/03 12:18:27;;;;;;;4.25;2.35;;;15.80;89.20;;;;;;5055610;28;20040;-71
2023/05/03 12:20:57;;;;;;;4.90;2.30;;;16.00;89.60;;;;;;5050822;28;20377;-71
2023/05/03 12:23:23;;;;;;;4.10;2.40;;;16.20;89.10;;;;;;5058599;28;20182;-71
2023/05/03 12:25:52;;;;;;;6.93;2.28;;;16.30;87.00;;;;;;5053034;28;20049;-71
2023/05/03 12:28:18;;;;;;;3.53;2.38;;;16.00;87.10;;;;;;5057699;28;20144;-71
2023/05/03 12:30:44;;;;;;;6.10;2.20;;;15.90;87.10;;;;;;5049126;28;20215;-70
2023/05/03 12:33:10;;;;;;;4.32;2.58;;;16.00;86.70;;;;;;5052424;28;20474;-71
2023/05/03 12:35:36;;;;;;;6.03;2.17;;;16.20;86.70;;;;;;5050931;28;20028;-70
2023/05/03 12:38:05;;;;;;;5.28;2.42;;;16.20;86.20;;;;;;5046194;28;20504;-69
2023/05/03 12:40:31;;;;;;;4.75;2.22;;;16.20;85.10;;;;;;5061360;28;20024;-71
2023/05/03 12:42:56;;;;;;;5.82;2.47;;;16.40;84.50;;;;;;5058826;28;20028;-71
2023/05/03 12:45:22;;;;;;;6.03;2.08;;;16.40;83.80;;;;;;5054895;28;20178;-72
2023/05/03 12:47:48;;;;;;;6.25;2.75;;;16.50;83.80;;;;;;5059531;28;20101;-72
2023/05/03 12:50:13;;;;;;;5.78;2.30;;;16.70;81.60;;;;;;5063593;28;20049;-71
2023/05/03 12:52:39;;;;;;;5.80;2.42;;;16.50;81.30;;;;;;5057753;28;20032;-71
2023/05/03 12:55:05;;;;;;;7.57;2.50;;;16.60;82.40;;;;;;5055627;28;20155;-71